Portada
METAR-TAF:

METAR-TAF

Aeroports :

Màlaga, Espanya

latitud: 36-40N, longitud: 004-29W, altitud: 16 m

Observació

L'informe es va fer fa 31 minuts, a les 21:00 UTC
Vent 4 kt del Oest/Nord-Oest
Temperatura 11°C
Humitat 66%
Pressió 1017 hPa
Visibilitat 10 km o més
Escasses núvols a una alçada de 3500 ft
Núvols disperses a una alçada de 7000 ft

METAR: LEMG 222100Z 30004KT 9999 FEW035 SCT070 11/05 Q1017 NOSIG

Hora: 22:31 (21:31 UTC)

Pronòstic

L'informe es va fer fa 4 hores i 31 minuts, a les 17:00 UTC
Pronòstic vàlid del 22 a les 18 UTC al 23 a les 18 UTC
Vent 10 kt del Oest/Nord-Oest
Visibilitat 10 km o més
Escasses núvols a una alçada de 3500 ft
Probabilitat 40% :
Temporalment
l' 23 a les 10 UTC al 23 a les 16 UTC
Vent 15 kt del Oest/Nord-Oest amb ràfegues de 25 kt

TAF: LEMG 221700Z 2218/2318 30010KT 9999 FEW035 TX17/2315Z TN08/2307Z PROB40 TEMPO 2310/2316 30015G25KT

Observacions i pronòstics meteorològics de més de 4000 aeroports (METAR i TAF).

Les estacions disponibles són els punts grocs i vermells al mapa.

Posi el ratolí al punt desitjat per veure el nom de l'estació.

Feu clic per veure les observacions i els pronòstics meteorològics.

Per canviar el mapa: feu clic els botons verds amb una creu de color negre per apropar; al botó verd amb un guió per allunyar la imatge; o en les fletxes verdes per a mapes adjacents.


METAR-TAF: